sensor_id;sensor_type;location;lat;lon;timestamp;P1;durP1;ratioP1;P2;durP2;ratioP2
68858;SDS011;55864;49.238;8.092;2023-05-07T00:00:52;5.75;;;2.10;;
68858;SDS011;55864;49.238;8.092;2023-05-07T00:02:52;4.97;;;2.00;;
68858;SDS011;55864;49.238;8.092;2023-05-07T00:04:54;5.25;;;2.22;;
68858;SDS011;55864;49.238;8.092;2023-05-07T00:06:55;4.78;;;1.92;;
68858;SDS011;55864;49.238;8.092;2023-05-07T00:08:56;5.30;;;2.20;;
68858;SDS011;55864;49.238;8.092;2023-05-07T00:10:57;5.47;;;2.15;;
68858;SDS011;55864;49.238;8.092;2023-05-07T00:12:57;5.68;;;2.45;;
68858;SDS011;55864;49.238;8.092;2023-05-07T00:14:58;5.88;;;2.13;;
68858;SDS011;55864;49.238;8.092;2023-05-07T00:16:58;5.18;;;2.28;;
68858;SDS011;55864;49.238;8.092;2023-05-07T00:18:59;6.78;;;2.22;;
68858;SDS011;55864;49.238;8.092;2023-05-07T00:21:01;5.72;;;2.17;;
68858;SDS011;55864;49.238;8.092;2023-05-07T00:23:02;7.45;;;2.30;;
68858;SDS011;55864;49.238;8.092;2023-05-07T00:25:02;7.13;;;2.30;;
68858;SDS011;55864;49.238;8.092;2023-05-07T00:27:03;6.63;;;2.30;;
68858;SDS011;55864;49.238;8.092;2023-05-07T00:29:04;5.10;;;2.17;;
68858;SDS011;55864;49.238;8.092;2023-05-07T00:31:04;6.03;;;2.47;;
68858;SDS011;55864;49.238;8.092;2023-05-07T00:33:05;5.60;;;2.40;;
68858;SDS011;55864;49.238;8.092;2023-05-07T00:35:06;5.97;;;2.40;;
68858;SDS011;55864;49.238;8.092;2023-05-07T00:37:09;6.63;;;2.20;;
68858;SDS011;55864;49.238;8.092;2023-05-07T00:39:09;5.43;;;2.05;;
68858;SDS011;55864;49.238;8.092;2023-05-07T00:41:10;5.68;;;2.47;;
68858;SDS011;55864;49.238;8.092;2023-05-07T00:43:10;4.90;;;2.17;;
68858;SDS011;55864;49.238;8.092;2023-05-07T00:45:11;5.57;;;2.20;;
68858;SDS011;55864;49.238;8.092;2023-05-07T00:47:11;5.10;;;2.20;;
68858;SDS011;55864;49.238;8.092;2023-05-07T00:49:13;7.63;;;2.40;;
68858;SDS011;55864;49.238;8.092;2023-05-07T00:51:13;6.30;;;2.47;;
68858;SDS011;55864;49.238;8.092;2023-05-07T00:53:15;5.72;;;2.30;;
68858;SDS011;55864;49.238;8.092;2023-05-07T00:55:16;5.50;;;2.40;;
68858;SDS011;55864;49.238;8.092;2023-05-07T00:57:17;5.00;;;2.00;;
68858;SDS011;55864;49.238;8.092;2023-05-07T00:59:17;4.90;;;1.85;;
68858;SDS011;55864;49.238;8.092;2023-05-07T01:01:18;5.70;;;2.63;;
68858;SDS011;55864;49.238;8.092;2023-05-07T01:03:19;6.63;;;2.40;;
68858;SDS011;55864;49.238;8.092;2023-05-07T01:05:20;4.95;;;2.05;;
68858;SDS011;55864;49.238;8.092;2023-05-07T01:07:24;6.50;;;2.20;;
68858;SDS011;55864;49.238;8.092;2023-05-07T01:09:26;4.30;;;1.80;;
68858;SDS011;55864;49.238;8.092;2023-05-07T01:11:27;7.97;;;2.10;;
68858;SDS011;55864;49.238;8.092;2023-05-07T01:13:28;5.88;;;2.20;;
68858;SDS011;55864;49.238;8.092;2023-05-07T01:15:29;6.22;;;2.20;;
68858;SDS011;55864;49.238;8.092;2023-05-07T01:17:32;4.40;;;1.98;;
68858;SDS011;55864;49.238;8.092;2023-05-07T01:19:33;5.72;;;2.28;;
68858;SDS011;55864;49.238;8.092;2023-05-07T01:21:34;5.97;;;2.10;;
68858;SDS011;55864;49.238;8.092;2023-05-07T01:23:40;4.93;;;1.98;;
68858;SDS011;55864;49.238;8.092;2023-05-07T01:25:41;5.15;;;2.20;;
68858;SDS011;55864;49.238;8.092;2023-05-07T01:27:43;5.50;;;2.25;;
68858;SDS011;55864;49.238;8.092;2023-05-07T01:29:43;5.30;;;2.03;;
68858;SDS011;55864;49.238;8.092;2023-05-07T01:31:44;4.60;;;1.80;;
68858;SDS011;55864;49.238;8.092;2023-05-07T01:33:46;7.60;;;2.20;;
68858;SDS011;55864;49.238;8.092;2023-05-07T01:35:51;5.75;;;2.03;;
68858;SDS011;55864;49.238;8.092;2023-05-07T01:37:53;5.60;;;2.25;;
68858;SDS011;55864;49.238;8.092;2023-05-07T01:39:56;6.38;;;2.30;;
68858;SDS011;55864;49.238;8.092;2023-05-07T01:41:57;6.35;;;2.50;;
68858;SDS011;55864;49.238;8.092;2023-05-07T01:43:59;5.30;;;2.10;;
68858;SDS011;55864;49.238;8.092;2023-05-07T01:46:01;5.60;;;2.40;;
68858;SDS011;55864;49.238;8.092;2023-05-07T01:48:04;5.10;;;2.00;;
68858;SDS011;55864;49.238;8.092;2023-05-07T01:50:06;7.30;;;2.28;;
68858;SDS011;55864;49.238;8.092;2023-05-07T01:52:09;4.70;;;2.13;;
68858;SDS011;55864;49.238;8.092;2023-05-07T01:54:10;6.03;;;2.10;;
68858;SDS011;55864;49.238;8.092;2023-05-07T01:56:12;7.38;;;2.33;;
68858;SDS011;55864;49.238;8.092;2023-05-07T01:58:14;5.70;;;2.10;;
68858;SDS011;55864;49.238;8.092;2023-05-07T02:00:15;5.43;;;2.00;;
68858;SDS011;55864;49.238;8.092;2023-05-07T02:02:16;5.18;;;1.90;;
68858;SDS011;55864;49.238;8.092;2023-05-07T02:04:18;6.05;;;2.10;;
68858;SDS011;55864;49.238;8.092;2023-05-07T02:06:18;5.57;;;2.58;;
68858;SDS011;55864;49.238;8.092;2023-05-07T02:08:19;7.57;;;2.30;;
68858;SDS011;55864;49.238;8.092;2023-05-07T02:10:20;5.03;;;1.98;;
68858;SDS011;55864;49.238;8.092;2023-05-07T02:12:22;5.47;;;2.35;;
68858;SDS011;55864;49.238;8.092;2023-05-07T02:14:22;5.32;;;2.05;;
68858;SDS011;55864;49.238;8.092;2023-05-07T02:16:23;7.00;;;1.88;;
68858;SDS011;55864;49.238;8.092;2023-05-07T02:18:25;4.50;;;2.00;;
68858;SDS011;55864;49.238;8.092;2023-05-07T02:20:25;4.90;;;2.00;;
68858;SDS011;55864;49.238;8.092;2023-05-07T02:22:26;5.32;;;2.22;;
68858;SDS011;55864;49.238;8.092;2023-05-07T02:24:26;5.03;;;2.20;;
68858;SDS011;55864;49.238;8.092;2023-05-07T02:26:27;4.57;;;2.08;;
68858;SDS011;55864;49.238;8.092;2023-05-07T02:28:29;6.05;;;2.30;;
68858;SDS011;55864;49.238;8.092;2023-05-07T02:30:34;5.68;;;2.35;;
68858;SDS011;55864;49.238;8.092;2023-05-07T02:32:34;5.85;;;2.50;;
68858;SDS011;55864;49.238;8.092;2023-05-07T02:34:35;6.47;;;2.25;;
68858;SDS011;55864;49.238;8.092;2023-05-07T02:36:35;5.10;;;2.20;;
68858;SDS011;55864;49.238;8.092;2023-05-07T02:38:42;5.18;;;2.20;;
68858;SDS011;55864;49.238;8.092;2023-05-07T02:40:44;4.50;;;2.00;;
68858;SDS011;55864;49.238;8.092;2023-05-07T02:42:44;6.97;;;2.35;;
68858;SDS011;55864;49.238;8.092;2023-05-07T02:44:46;4.50;;;1.92;;
68858;SDS011;55864;49.238;8.092;2023-05-07T02:46:47;7.30;;;2.17;;
68858;SDS011;55864;49.238;8.092;2023-05-07T02:48:47;5.40;;;1.77;;
68858;SDS011;55864;49.238;8.092;2023-05-07T02:50:48;4.93;;;1.80;;
68858;SDS011;55864;49.238;8.092;2023-05-07T02:52:49;5.07;;;2.10;;
68858;SDS011;55864;49.238;8.092;2023-05-07T02:54:49;4.75;;;2.03;;
68858;SDS011;55864;49.238;8.092;2023-05-07T02:56:50;5.88;;;2.00;;
68858;SDS011;55864;49.238;8.092;2023-05-07T02:58:50;4.75;;;1.95;;
68858;SDS011;55864;49.238;8.092;2023-05-07T03:00:54;4.20;;;2.03;;
68858;SDS011;55864;49.238;8.092;2023-05-07T03:03:20;4.68;;;1.77;;
68858;SDS011;55864;49.238;8.092;2023-05-07T03:05:21;5.47;;;2.15;;
68858;SDS011;55864;49.238;8.092;2023-05-07T03:07:22;4.60;;;2.00;;
68858;SDS011;55864;49.238;8.092;2023-05-07T03:09:22;7.10;;;2.20;;
68858;SDS011;55864;49.238;8.092;2023-05-07T03:11:23;5.82;;;2.40;;
68858;SDS011;55864;49.238;8.092;2023-05-07T03:13:24;5.40;;;2.10;;
68858;SDS011;55864;49.238;8.092;2023-05-07T03:15:25;4.57;;;2.03;;
68858;SDS011;55864;49.238;8.092;2023-05-07T03:17:27;4.97;;;2.13;;
68858;SDS011;55864;49.238;8.092;2023-05-07T03:19:28;4.20;;;1.90;;
68858;SDS011;55864;49.238;8.092;2023-05-07T03:21:28;4.03;;;1.90;;
68858;SDS011;55864;49.238;8.092;2023-05-07T03:23:29;5.30;;;1.98;;
68858;SDS011;55864;49.238;8.092;2023-05-07T03:25:30;5.47;;;2.28;;
68858;SDS011;55864;49.238;8.092;2023-05-07T03:27:30;5.95;;;1.95;;
68858;SDS011;55864;49.238;8.092;2023-05-07T03:29:31;5.13;;;2.00;;
68858;SDS011;55864;49.238;8.092;2023-05-07T03:31:31;4.65;;;2.03;;
68858;SDS011;55864;49.238;8.092;2023-05-07T03:33:34;6.45;;;2.00;;
68858;SDS011;55864;49.238;8.092;2023-05-07T03:35:35;4.65;;;2.03;;
68858;SDS011;55864;49.238;8.092;2023-05-07T03:37:35;5.32;;;2.03;;
68858;SDS011;55864;49.238;8.092;2023-05-07T03:39:36;4.75;;;2.05;;
68858;SDS011;55864;49.238;8.092;2023-05-07T03:41:37;4.25;;;1.92;;
68858;SDS011;55864;49.238;8.092;2023-05-07T03:43:38;5.20;;;1.90;;
68858;SDS011;55864;49.238;8.092;2023-05-07T03:45:42;5.30;;;2.00;;
68858;SDS011;55864;49.238;8.092;2023-05-07T03:47:56;5.13;;;2.22;;
68858;SDS011;55864;49.238;8.092;2023-05-07T03:49:58;6.35;;;2.40;;
68858;SDS011;55864;49.238;8.092;2023-05-07T03:51:59;5.38;;;2.10;;
68858;SDS011;55864;49.238;8.092;2023-05-07T03:54:00;5.80;;;2.00;;
68858;SDS011;55864;49.238;8.092;2023-05-07T03:56:02;5.00;;;2.22;;
68858;SDS011;55864;49.238;8.092;2023-05-07T03:58:07;4.78;;;2.38;;
68858;SDS011;55864;49.238;8.092;2023-05-07T04:00:08;5.43;;;2.50;;
68858;SDS011;55864;49.238;8.092;2023-05-07T04:02:20;4.55;;;2.00;;
68858;SDS011;55864;49.238;8.092;2023-05-07T04:04:21;4.93;;;2.08;;
68858;SDS011;55864;49.238;8.092;2023-05-07T04:06:23;5.07;;;2.30;;
68858;SDS011;55864;49.238;8.092;2023-05-07T04:08:24;7.97;;;2.40;;
68858;SDS011;55864;49.238;8.092;2023-05-07T04:12:30;6.55;;;2.33;;
68858;SDS011;55864;49.238;8.092;2023-05-07T04:14:32;4.82;;;2.13;;
68858;SDS011;55864;49.238;8.092;2023-05-07T04:16:34;4.78;;;2.30;;
68858;SDS011;55864;49.238;8.092;2023-05-07T04:18:34;5.80;;;2.10;;
68858;SDS011;55864;49.238;8.092;2023-05-07T04:20:35;5.05;;;2.35;;
68858;SDS011;55864;49.238;8.092;2023-05-07T04:22:38;5.40;;;2.10;;
68858;SDS011;55864;49.238;8.092;2023-05-07T04:24:38;4.50;;;2.00;;
68858;SDS011;55864;49.238;8.092;2023-05-07T04:26:39;5.82;;;2.33;;
68858;SDS011;55864;49.238;8.092;2023-05-07T04:28:40;5.47;;;2.13;;
68858;SDS011;55864;49.238;8.092;2023-05-07T04:30:41;5.95;;;1.98;;
68858;SDS011;55864;49.238;8.092;2023-05-07T04:32:42;5.43;;;1.98;;
68858;SDS011;55864;49.238;8.092;2023-05-07T04:34:43;6.03;;;2.05;;
68858;SDS011;55864;49.238;8.092;2023-05-07T04:36:43;4.88;;;2.10;;
68858;SDS011;55864;49.238;8.092;2023-05-07T04:38:48;6.13;;;2.20;;
68858;SDS011;55864;49.238;8.092;2023-05-07T04:40:48;4.82;;;1.90;;
68858;SDS011;55864;49.238;8.092;2023-05-07T04:42:53;6.55;;;2.35;;
68858;SDS011;55864;49.238;8.092;2023-05-07T04:44:54;4.75;;;2.08;;
68858;SDS011;55864;49.238;8.092;2023-05-07T04:46:56;5.68;;;2.22;;
68858;SDS011;55864;49.238;8.092;2023-05-07T04:48:57;6.35;;;2.13;;
68858;SDS011;55864;49.238;8.092;2023-05-07T04:50:57;6.47;;;2.30;;
68858;SDS011;55864;49.238;8.092;2023-05-07T04:52:58;4.90;;;2.20;;
68858;SDS011;55864;49.238;8.092;2023-05-07T04:55:00;7.60;;;2.30;;
68858;SDS011;55864;49.238;8.092;2023-05-07T04:57:04;5.13;;;2.10;;
68858;SDS011;55864;49.238;8.092;2023-05-07T04:59:04;8.02;;;2.20;;
68858;SDS011;55864;49.238;8.092;2023-05-07T05:01:05;5.05;;;2.17;;
68858;SDS011;55864;49.238;8.092;2023-05-07T05:03:06;5.45;;;2.03;;
68858;SDS011;55864;49.238;8.092;2023-05-07T05:05:07;5.22;;;2.28;;
68858;SDS011;55864;49.238;8.092;2023-05-07T05:07:08;4.55;;;2.00;;
68858;SDS011;55864;49.238;8.092;2023-05-07T05:09:08;5.70;;;2.10;;
68858;SDS011;55864;49.238;8.092;2023-05-07T05:11:11;7.55;;;2.30;;
68858;SDS011;55864;49.238;8.092;2023-05-07T05:13:11;4.40;;;1.90;;
68858;SDS011;55864;49.238;8.092;2023-05-07T05:15:12;4.28;;;1.90;;
68858;SDS011;55864;49.238;8.092;2023-05-07T05:17:13;4.57;;;2.28;;
68858;SDS011;55864;49.238;8.092;2023-05-07T05:19:14;5.30;;;2.15;;
68858;SDS011;55864;49.238;8.092;2023-05-07T05:21:15;4.97;;;2.30;;
68858;SDS011;55864;49.238;8.092;2023-05-07T05:23:17;5.60;;;2.15;;
68858;SDS011;55864;49.238;8.092;2023-05-07T05:25:18;6.38;;;2.03;;
68858;SDS011;55864;49.238;8.092;2023-05-07T05:27:20;4.35;;;1.90;;
68858;SDS011;55864;49.238;8.092;2023-05-07T05:29:21;5.25;;;1.80;;
68858;SDS011;55864;49.238;8.092;2023-05-07T05:31:21;5.57;;;2.13;;
68858;SDS011;55864;49.238;8.092;2023-05-07T05:33:23;5.18;;;2.20;;
68858;SDS011;55864;49.238;8.092;2023-05-07T05:35:24;5.20;;;2.08;;
68858;SDS011;55864;49.238;8.092;2023-05-07T05:37:25;6.15;;;2.10;;
68858;SDS011;55864;49.238;8.092;2023-05-07T05:39:25;6.70;;;2.15;;
68858;SDS011;55864;49.238;8.092;2023-05-07T05:41:26;5.43;;;2.40;;
68858;SDS011;55864;49.238;8.092;2023-05-07T05:43:29;4.22;;;1.98;;
68858;SDS011;55864;49.238;8.092;2023-05-07T05:45:29;4.90;;;2.30;;
68858;SDS011;55864;49.238;8.092;2023-05-07T05:47:30;5.70;;;2.42;;
68858;SDS011;55864;49.238;8.092;2023-05-07T05:49:30;5.50;;;2.47;;
68858;SDS011;55864;49.238;8.092;2023-05-07T05:51:31;6.15;;;2.33;;
68858;SDS011;55864;49.238;8.092;2023-05-07T05:53:31;6.13;;;2.35;;
68858;SDS011;55864;49.238;8.092;2023-05-07T05:55:32;7.47;;;2.40;;
68858;SDS011;55864;49.238;8.092;2023-05-07T05:57:33;7.20;;;2.30;;
68858;SDS011;55864;49.238;8.092;2023-05-07T05:59:35;5.13;;;2.10;;
68858;SDS011;55864;49.238;8.092;2023-05-07T06:01:35;6.18;;;2.28;;
68858;SDS011;55864;49.238;8.092;2023-05-07T06:03:37;5.15;;;2.38;;
68858;SDS011;55864;49.238;8.092;2023-05-07T06:05:43;5.05;;;1.90;;
68858;SDS011;55864;49.238;8.092;2023-05-07T06:07:44;4.60;;;2.20;;
68858;SDS011;55864;49.238;8.092;2023-05-07T06:09:44;5.53;;;2.40;;
68858;SDS011;55864;49.238;8.092;2023-05-07T06:11:45;4.97;;;2.20;;
68858;SDS011;55864;49.238;8.092;2023-05-07T06:13:47;5.47;;;2.35;;
68858;SDS011;55864;49.238;8.092;2023-05-07T06:15:48;5.75;;;2.30;;
68858;SDS011;55864;49.238;8.092;2023-05-07T06:17:49;6.25;;;2.30;;
68858;SDS011;55864;49.238;8.092;2023-05-07T06:19:50;7.82;;;2.13;;
68858;SDS011;55864;49.238;8.092;2023-05-07T06:21:53;5.25;;;2.20;;
68858;SDS011;55864;49.238;8.092;2023-05-07T06:23:53;6.45;;;2.50;;
68858;SDS011;55864;49.238;8.092;2023-05-07T06:25:54;5.47;;;2.50;;
68858;SDS011;55864;49.238;8.092;2023-05-07T06:27:59;5.82;;;2.30;;
68858;SDS011;55864;49.238;8.092;2023-05-07T06:30:00;5.93;;;2.50;;
68858;SDS011;55864;49.238;8.092;2023-05-07T06:32:08;6.43;;;2.63;;
68858;SDS011;55864;49.238;8.092;2023-05-07T06:34:09;5.47;;;2.70;;
68858;SDS011;55864;49.238;8.092;2023-05-07T06:36:12;6.45;;;2.70;;
68858;SDS011;55864;49.238;8.092;2023-05-07T06:38:13;6.18;;;2.30;;
68858;SDS011;55864;49.238;8.092;2023-05-07T06:40:15;5.60;;;2.15;;
68858;SDS011;55864;49.238;8.092;2023-05-07T06:42:16;5.70;;;2.20;;
68858;SDS011;55864;49.238;8.092;2023-05-07T06:44:20;6.00;;;2.60;;
68858;SDS011;55864;49.238;8.092;2023-05-07T06:46:31;6.40;;;2.92;;
68858;SDS011;55864;49.238;8.092;2023-05-07T06:48:34;5.93;;;2.80;;
68858;SDS011;55864;49.238;8.092;2023-05-07T06:50:39;5.03;;;2.60;;
68858;SDS011;55864;49.238;8.092;2023-05-07T06:52:40;7.00;;;2.85;;
68858;SDS011;55864;49.238;8.092;2023-05-07T06:54:42;5.70;;;2.63;;
68858;SDS011;55864;49.238;8.092;2023-05-07T06:56:43;5.25;;;2.70;;
68858;SDS011;55864;49.238;8.092;2023-05-07T06:58:43;5.68;;;2.80;;
68858;SDS011;55864;49.238;8.092;2023-05-07T07:00:45;6.95;;;2.78;;
68858;SDS011;55864;49.238;8.092;2023-05-07T07:02:46;6.28;;;2.50;;
68858;SDS011;55864;49.238;8.092;2023-05-07T07:04:50;7.32;;;2.70;;
68858;SDS011;55864;49.238;8.092;2023-05-07T07:06:51;6.05;;;2.63;;
68858;SDS011;55864;49.238;8.092;2023-05-07T07:08:52;7.60;;;3.03;;
68858;SDS011;55864;49.238;8.092;2023-05-07T07:10:52;6.82;;;2.78;;
68858;SDS011;55864;49.238;8.092;2023-05-07T07:12:53;6.20;;;3.20;;
68858;SDS011;55864;49.238;8.092;2023-05-07T07:14:54;5.97;;;2.85;;
68858;SDS011;55864;49.238;8.092;2023-05-07T07:16:54;5.78;;;2.92;;
68858;SDS011;55864;49.238;8.092;2023-05-07T07:18:56;5.97;;;2.63;;
68858;SDS011;55864;49.238;8.092;2023-05-07T07:20:58;6.20;;;2.90;;
68858;SDS011;55864;49.238;8.092;2023-05-07T07:22:59;6.07;;;2.72;;
68858;SDS011;55864;49.238;8.092;2023-05-07T07:25:00;6.18;;;2.53;;
68858;SDS011;55864;49.238;8.092;2023-05-07T07:27:01;7.28;;;2.83;;
68858;SDS011;55864;49.238;8.092;2023-05-07T07:29:02;6.97;;;3.00;;
68858;SDS011;55864;49.238;8.092;2023-05-07T07:31:03;6.93;;;2.80;;
68858;SDS011;55864;49.238;8.092;2023-05-07T07:33:05;7.05;;;3.40;;
68858;SDS011;55864;49.238;8.092;2023-05-07T07:35:09;6.30;;;3.13;;
68858;SDS011;55864;49.238;8.092;2023-05-07T07:37:12;9.82;;;3.08;;
68858;SDS011;55864;49.238;8.092;2023-05-07T07:39:12;5.80;;;2.88;;
68858;SDS011;55864;49.238;8.092;2023-05-07T07:41:13;5.35;;;2.80;;
68858;SDS011;55864;49.238;8.092;2023-05-07T07:43:14;5.63;;;2.88;;
68858;SDS011;55864;49.238;8.092;2023-05-07T07:45:15;7.60;;;2.53;;
68858;SDS011;55864;49.238;8.092;2023-05-07T07:47:19;6.63;;;3.20;;
68858;SDS011;55864;49.238;8.092;2023-05-07T07:49:21;5.60;;;2.80;;
68858;SDS011;55864;49.238;8.092;2023-05-07T07:51:22;7.80;;;3.53;;
68858;SDS011;55864;49.238;8.092;2023-05-07T07:53:24;7.65;;;3.40;;
68858;SDS011;55864;49.238;8.092;2023-05-07T07:55:25;6.00;;;3.15;;
68858;SDS011;55864;49.238;8.092;2023-05-07T07:57:27;7.18;;;3.08;;
68858;SDS011;55864;49.238;8.092;2023-05-07T07:59:29;6.07;;;3.17;;
68858;SDS011;55864;49.238;8.092;2023-05-07T08:01:29;6.20;;;2.83;;
68858;SDS011;55864;49.238;8.092;2023-05-07T08:03:30;7.13;;;3.10;;
68858;SDS011;55864;49.238;8.092;2023-05-07T08:05:32;6.25;;;2.70;;
68858;SDS011;55864;49.238;8.092;2023-05-07T08:07:34;5.72;;;2.70;;
68858;SDS011;55864;49.238;8.092;2023-05-07T08:09:36;5.53;;;2.70;;
68858;SDS011;55864;49.238;8.092;2023-05-07T08:11:38;5.70;;;2.72;;
68858;SDS011;55864;49.238;8.092;2023-05-07T08:13:39;7.40;;;2.72;;
68858;SDS011;55864;49.238;8.092;2023-05-07T08:15:40;7.32;;;3.10;;
68858;SDS011;55864;49.238;8.092;2023-05-07T08:17:40;6.13;;;2.72;;
68858;SDS011;55864;49.238;8.092;2023-05-07T08:19:41;6.68;;;3.30;;
68858;SDS011;55864;49.238;8.092;2023-05-07T08:21:45;6.38;;;3.15;;
68858;SDS011;55864;49.238;8.092;2023-05-07T08:23:46;6.32;;;3.08;;
68858;SDS011;55864;49.238;8.092;2023-05-07T08:25:48;6.00;;;3.50;;
68858;SDS011;55864;49.238;8.092;2023-05-07T08:27:50;6.72;;;2.92;;
68858;SDS011;55864;49.238;8.092;2023-05-07T08:29:51;5.85;;;2.85;;
68858;SDS011;55864;49.238;8.092;2023-05-07T08:31:53;6.75;;;3.22;;
68858;SDS011;55864;49.238;8.092;2023-05-07T08:33:54;6.93;;;3.08;;
68858;SDS011;55864;49.238;8.092;2023-05-07T08:35:55;6.25;;;2.88;;
68858;SDS011;55864;49.238;8.092;2023-05-07T08:37:55;7.25;;;3.50;;
68858;SDS011;55864;49.238;8.092;2023-05-07T08:39:56;6.32;;;2.65;;
68858;SDS011;55864;49.238;8.092;2023-05-07T08:42:02;7.40;;;3.75;;
68858;SDS011;55864;49.238;8.092;2023-05-07T08:44:04;6.32;;;3.08;;
68858;SDS011;55864;49.238;8.092;2023-05-07T08:46:11;6.32;;;3.53;;
68858;SDS011;55864;49.238;8.092;2023-05-07T08:48:17;6.63;;;3.05;;
68858;SDS011;55864;49.238;8.092;2023-05-07T08:50:23;7.10;;;3.10;;
68858;SDS011;55864;49.238;8.092;2023-05-07T08:52:25;7.30;;;3.22;;
68858;SDS011;55864;49.238;8.092;2023-05-07T08:54:26;7.18;;;3.10;;
68858;SDS011;55864;49.238;8.092;2023-05-07T08:56:28;9.68;;;3.42;;
68858;SDS011;55864;49.238;8.092;2023-05-07T08:58:30;5.93;;;3.03;;
68858;SDS011;55864;49.238;8.092;2023-05-07T09:00:31;7.47;;;3.40;;
68858;SDS011;55864;49.238;8.092;2023-05-07T09:02:34;6.20;;;2.50;;
68858;SDS011;55864;49.238;8.092;2023-05-07T09:04:35;6.30;;;3.10;;
68858;SDS011;55864;49.238;8.092;2023-05-07T09:06:36;7.57;;;3.08;;
68858;SDS011;55864;49.238;8.092;2023-05-07T09:08:36;7.03;;;3.15;;
68858;SDS011;55864;49.238;8.092;2023-05-07T09:10:39;6.32;;;3.10;;
68858;SDS011;55864;49.238;8.092;2023-05-07T09:12:40;7.28;;;3.33;;
68858;SDS011;55864;49.238;8.092;2023-05-07T09:14:43;7.40;;;3.03;;
68858;SDS011;55864;49.238;8.092;2023-05-07T09:16:44;7.30;;;3.70;;
68858;SDS011;55864;49.238;8.092;2023-05-07T09:18:48;6.05;;;3.17;;
68858;SDS011;55864;49.238;8.092;2023-05-07T09:20:51;7.78;;;3.28;;
68858;SDS011;55864;49.238;8.092;2023-05-07T09:22:55;8.65;;;4.18;;
68858;SDS011;55864;49.238;8.092;2023-05-07T09:24:57;6.78;;;3.78;;
68858;SDS011;55864;49.238;8.092;2023-05-07T09:27:00;6.20;;;3.13;;
68858;SDS011;55864;49.238;8.092;2023-05-07T09:29:02;6.95;;;3.30;;
68858;SDS011;55864;49.238;8.092;2023-05-07T09:31:04;6.30;;;3.33;;
68858;SDS011;55864;49.238;8.092;2023-05-07T09:33:05;5.50;;;2.92;;
68858;SDS011;55864;49.238;8.092;2023-05-07T09:37:14;6.45;;;3.40;;
68858;SDS011;55864;49.238;8.092;2023-05-07T09:39:15;6.00;;;3.03;;
68858;SDS011;55864;49.238;8.092;2023-05-07T09:41:16;6.85;;;3.50;;
68858;SDS011;55864;49.238;8.092;2023-05-07T09:43:38;7.47;;;3.28;;
68858;SDS011;55864;49.238;8.092;2023-05-07T09:45:41;7.30;;;3.15;;
68858;SDS011;55864;49.238;8.092;2023-05-07T09:47:45;7.40;;;3.53;;
68858;SDS011;55864;49.238;8.092;2023-05-07T09:49:48;6.25;;;3.30;;
68858;SDS011;55864;49.238;8.092;2023-05-07T09:51:54;6.13;;;3.33;;
68858;SDS011;55864;49.238;8.092;2023-05-07T09:53:59;7.65;;;3.58;;
68858;SDS011;55864;49.238;8.092;2023-05-07T09:56:00;7.85;;;3.53;;
68858;SDS011;55864;49.238;8.092;2023-05-07T09:58:03;7.35;;;3.30;;
68858;SDS011;55864;49.238;8.092;2023-05-07T10:00:06;7.00;;;3.47;;
68858;SDS011;55864;49.238;8.092;2023-05-07T10:02:20;7.50;;;3.42;;
68858;SDS011;55864;49.238;8.092;2023-05-07T10:04:27;9.52;;;3.83;;
68858;SDS011;55864;49.238;8.092;2023-05-07T10:06:29;8.55;;;3.45;;
68858;SDS011;55864;49.238;8.092;2023-05-07T10:08:31;8.05;;;3.97;;
68858;SDS011;55864;49.238;8.092;2023-05-07T10:10:33;5.75;;;3.10;;
68858;SDS011;55864;49.238;8.092;2023-05-07T10:12:35;7.20;;;3.83;;
68858;SDS011;55864;49.238;8.092;2023-05-07T10:14:36;6.82;;;3.40;;
68858;SDS011;55864;49.238;8.092;2023-05-07T10:16:37;6.93;;;4.82;;
68858;SDS011;55864;49.238;8.092;2023-05-07T10:18:41;8.90;;;4.90;;
68858;SDS011;55864;49.238;8.092;2023-05-07T10:20:50;8.00;;;4.80;;
68858;SDS011;55864;49.238;8.092;2023-05-07T10:22:52;8.07;;;4.85;;
68858;SDS011;55864;49.238;8.092;2023-05-07T10:25:02;9.00;;;4.68;;
68858;SDS011;55864;49.238;8.092;2023-05-07T10:27:07;7.07;;;4.65;;
68858;SDS011;55864;49.238;8.092;2023-05-07T10:29:12;6.63;;;3.92;;
68858;SDS011;55864;49.238;8.092;2023-05-07T10:31:23;6.18;;;3.80;;
68858;SDS011;55864;49.238;8.092;2023-05-07T10:33:48;7.38;;;4.07;;
68858;SDS011;55864;49.238;8.092;2023-05-07T10:35:57;6.45;;;3.70;;
68858;SDS011;55864;49.238;8.092;2023-05-07T10:38:01;6.35;;;4.15;;
68858;SDS011;55864;49.238;8.092;2023-05-07T10:40:05;7.30;;;3.70;;
68858;SDS011;55864;49.238;8.092;2023-05-07T10:42:07;7.23;;;4.30;;
68858;SDS011;55864;49.238;8.092;2023-05-07T10:44:08;8.02;;;4.55;;
68858;SDS011;55864;49.238;8.092;2023-05-07T10:46:10;7.63;;;4.65;;
68858;SDS011;55864;49.238;8.092;2023-05-07T10:48:16;8.23;;;4.78;;
68858;SDS011;55864;49.238;8.092;2023-05-07T10:50:23;6.72;;;4.20;;
68858;SDS011;55864;49.238;8.092;2023-05-07T10:52:27;7.93;;;5.05;;
68858;SDS011;55864;49.238;8.092;2023-05-07T10:54:35;10.00;;;5.13;;
68858;SDS011;55864;49.238;8.092;2023-05-07T10:56:40;8.30;;;5.80;;
68858;SDS011;55864;49.238;8.092;2023-05-07T10:58:47;7.07;;;5.00;;
68858;SDS011;55864;49.238;8.092;2023-05-07T11:00:58;7.30;;;4.82;;
68858;SDS011;55864;49.238;8.092;2023-05-07T11:03:06;10.05;;;4.30;;
68858;SDS011;55864;49.238;8.092;2023-05-07T11:05:19;8.50;;;4.30;;
68858;SDS011;55864;49.238;8.092;2023-05-07T11:07:29;6.57;;;3.65;;
68858;SDS011;55864;49.238;8.092;2023-05-07T11:12:09;10.73;;;3.30;;
68858;SDS011;55864;49.238;8.092;2023-05-07T11:16:48;8.55;;;3.50;;
68858;SDS011;55864;49.238;8.092;2023-05-07T11:18:57;6.70;;;3.40;;
68858;SDS011;55864;49.238;8.092;2023-05-07T11:21:04;7.13;;;3.70;;
68858;SDS011;55864;49.238;8.092;2023-05-07T11:26:17;7.32;;;3.60;;
68858;SDS011;55864;49.238;8.092;2023-05-07T11:28:19;7.55;;;3.47;;
68858;SDS011;55864;49.238;8.092;2023-05-07T11:30:28;6.32;;;3.17;;
68858;SDS011;55864;49.238;8.092;2023-05-07T11:32:29;7.25;;;3.30;;
68858;SDS011;55864;49.238;8.092;2023-05-07T11:34:30;7.85;;;4.13;;
68858;SDS011;55864;49.238;8.092;2023-05-07T11:36:32;7.72;;;5.07;;
68858;SDS011;55864;49.238;8.092;2023-05-07T11:38:35;5.95;;;3.00;;
68858;SDS011;55864;49.238;8.092;2023-05-07T11:40:47;7.80;;;3.70;;
68858;SDS011;55864;49.238;8.092;2023-05-07T11:42:50;7.43;;;3.20;;
68858;SDS011;55864;49.238;8.092;2023-05-07T11:44:51;6.88;;;3.03;;
68858;SDS011;55864;49.238;8.092;2023-05-07T11:46:51;8.35;;;3.42;;
68858;SDS011;55864;49.238;8.092;2023-05-07T11:48:52;7.82;;;3.90;;
68858;SDS011;55864;49.238;8.092;2023-05-07T11:50:53;6.40;;;3.90;;
68858;SDS011;55864;49.238;8.092;2023-05-07T11:52:59;7.28;;;3.42;;
68858;SDS011;55864;49.238;8.092;2023-05-07T11:55:00;7.22;;;3.90;;
68858;SDS011;55864;49.238;8.092;2023-05-07T11:57:01;8.13;;;3.67;;
68858;SDS011;55864;49.238;8.092;2023-05-07T11:59:04;5.82;;;3.55;;
68858;SDS011;55864;49.238;8.092;2023-05-07T12:01:07;7.90;;;3.33;;
68858;SDS011;55864;49.238;8.092;2023-05-07T12:03:08;6.25;;;3.42;;
68858;SDS011;55864;49.238;8.092;2023-05-07T12:05:09;6.32;;;3.30;;
68858;SDS011;55864;49.238;8.092;2023-05-07T12:07:13;5.70;;;3.35;;
68858;SDS011;55864;49.238;8.092;2023-05-07T12:09:14;5.65;;;2.88;;
68858;SDS011;55864;49.238;8.092;2023-05-07T12:11:22;8.35;;;3.38;;
68858;SDS011;55864;49.238;8.092;2023-05-07T12:13:27;6.13;;;3.00;;
68858;SDS011;55864;49.238;8.092;2023-05-07T12:15:29;7.45;;;3.35;;
68858;SDS011;55864;49.238;8.092;2023-05-07T12:17:29;6.63;;;4.03;;
68858;SDS011;55864;49.238;8.092;2023-05-07T12:19:30;5.97;;;3.40;;
68858;SDS011;55864;49.238;8.092;2023-05-07T12:21:31;7.75;;;3.33;;
68858;SDS011;55864;49.238;8.092;2023-05-07T12:23:31;7.75;;;3.80;;
68858;SDS011;55864;49.238;8.092;2023-05-07T12:25:34;6.82;;;3.42;;
68858;SDS011;55864;49.238;8.092;2023-05-07T12:27:36;7.18;;;3.20;;
68858;SDS011;55864;49.238;8.092;2023-05-07T12:29:39;6.95;;;3.25;;